Time;durP1;ratioP1;P1;durP2;ratioP2;P2;SDS_P1;SDS_P2;PMS_P1;PMS_P2;Temp;Humidity;BMP_temperature;BMP_pressure;BME280_temperature;BME280_humidity;BME280_pressure;Samples;Min_cycle;Max_cycle;Signal;HPM_P1;HPM_P2
2023/10/04 00:00:20;;;;;;;8.07;2.38;;;12.80;99.90;;;;;;5054663;28;20041;-67
2023/10/04 00:02:53;;;;;;;8.65;2.60;;;12.80;99.90;;;;;;5054374;28;20060;-68
2023/10/04 00:05:21;;;;;;;8.30;2.45;;;12.90;99.90;;;;;;5054140;28;20132;-68
2023/10/04 00:07:48;;;;;;;9.20;2.45;;;12.90;99.90;;;;;;5037669;28;20045;-66
2023/10/04 00:10:15;;;;;;;8.73;2.55;;;12.90;99.90;;;;;;5054281;28;20068;-66
2023/10/04 00:12:43;;;;;;;9.35;2.60;;;12.90;99.90;;;;;;5037497;28;20102;-68
2023/10/04 00:15:09;;;;;;;7.60;2.30;;;12.90;99.90;;;;;;5053923;28;20040;-67
2023/10/04 00:17:42;;;;;;;7.18;2.10;;;12.90;99.90;;;;;;5054112;28;20546;-67
2023/10/04 00:20:16;;;;;;;9.18;2.38;;;12.90;99.90;;;;;;5053902;28;20040;-67
2023/10/04 00:22:49;;;;;;;9.38;2.60;;;12.90;99.90;;;;;;5053841;28;20128;-67
2023/10/04 00:25:21;;;;;;;8.73;2.65;;;12.90;99.90;;;;;;5053398;28;20140;-68
2023/10/04 00:27:47;;;;;;;;;;;12.90;99.90;;;;;;5038746;28;20509;-68
2023/10/04 00:30:14;;;;;;;9.93;2.72;;;12.80;99.90;;;;;;5053664;28;19964;-67
2023/10/04 00:32:41;;;;;;;11.68;3.00;;;12.80;99.90;;;;;;5037323;28;20045;-68
2023/10/04 00:35:19;;;;;;;11.63;3.30;;;12.80;99.90;;;;;;5054892;28;20037;-68
2023/10/04 00:37:51;;;;;;;12.73;2.90;;;12.80;99.90;;;;;;5038523;28;20040;-67
2023/10/04 00:40:22;;;;;;;9.60;3.10;;;12.70;99.90;;;;;;5053477;28;20182;-67
2023/10/04 00:42:49;;;;;;;12.85;3.60;;;12.70;99.90;;;;;;5053365;28;20044;-67
2023/10/04 00:45:20;;;;;;;9.80;3.03;;;12.70;99.90;;;;;;5053665;28;20130;-73
2023/10/04 00:47:54;;;;;;;10.30;3.30;;;12.70;99.90;;;;;;5053399;28;20086;-67
2023/10/04 00:50:29;;;;;;;12.60;3.10;;;12.70;99.90;;;;;;5036615;28;20041;-68
2023/10/04 00:53:16;;;;;;;12.13;3.20;;;12.70;99.90;;;;;;5036760;28;20138;-68
2023/10/04 00:55:45;;;;;;;9.40;2.92;;;12.60;99.90;;;;;;5036963;28;20045;-67
2023/10/04 00:58:17;;;;;;;11.75;3.20;;;12.60;99.90;;;;;;5036852;28;20400;-67
2023/10/04 01:00:45;;;;;;;14.45;3.08;;;12.60;99.90;;;;;;5036393;28;20076;-71
2023/10/04 01:03:13;;;;;;;11.23;3.00;;;12.50;99.90;;;;;;5053083;28;20045;-67
2023/10/04 01:05:46;;;;;;;9.70;2.80;;;12.50;99.90;;;;;;5052975;28;20051;-67
2023/10/04 01:08:15;;;;;;;9.50;3.00;;;12.50;99.90;;;;;;5037484;28;20048;-68
2023/10/04 01:10:43;;;;;;;10.85;3.25;;;12.50;99.90;;;;;;5036593;28;20371;-67
2023/10/04 01:13:09;;;;;;;10.15;3.20;;;12.40;99.90;;;;;;5052838;28;20481;-67
2023/10/04 01:15:39;;;;;;;9.15;3.08;;;12.40;99.90;;;;;;5036407;28;20048;-67
2023/10/04 01:18:11;;;;;;;9.13;3.03;;;12.30;99.90;;;;;;5053062;28;20444;-66
2023/10/04 01:20:40;;;;;;;9.20;2.95;;;12.30;99.90;;;;;;5037112;28;20041;-66
2023/10/04 01:23:11;;;;;;;10.77;3.10;;;12.20;99.90;;;;;;5052668;28;20037;-66
2023/10/04 01:25:43;;;;;;;10.15;2.75;;;12.20;99.90;;;;;;5052624;28;20064;-66
2023/10/04 01:28:13;;;;;;;9.93;3.20;;;12.20;99.90;;;;;;5052597;28;20041;-66
2023/10/04 01:30:40;;;;;;;8.43;2.97;;;12.20;99.90;;;;;;5052581;28;20060;-67
2023/10/04 01:33:12;;;;;;;9.02;2.72;;;12.20;99.90;;;;;;5052591;28;20045;-67
2023/10/04 01:35:38;;;;;;;10.55;2.90;;;12.20;99.90;;;;;;5051576;28;20044;-69
2023/10/04 01:38:07;;;;;;;10.15;2.95;;;12.20;99.90;;;;;;5052498;28;20033;-67
2023/10/04 01:40:35;;;;;;;8.68;2.78;;;12.20;99.90;;;;;;5036047;28;20075;-65
2023/10/04 01:43:15;;;;;;;9.80;2.80;;;12.20;99.90;;;;;;5052338;28;20047;-66
2023/10/04 01:45:57;;;;;;;8.15;2.70;;;12.30;99.90;;;;;;5037250;28;20087;-66
2023/10/04 01:48:23;;;;;;;9.13;2.70;;;12.30;99.90;;;;;;5019631;28;20489;-67
2023/10/04 01:50:53;;;;;;;10.88;2.50;;;12.20;99.90;;;;;;5052447;28;20041;-67
2023/10/04 01:53:24;;;;;;;9.65;2.50;;;12.30;99.90;;;;;;5052119;28;20060;-65
2023/10/04 01:55:50;;;;;;;10.40;2.73;;;12.30;99.90;;;;;;5053659;28;20401;-73
2023/10/04 01:58:21;;;;;;;10.13;2.42;;;12.20;99.90;;;;;;5053288;28;20045;-72
2023/10/04 02:00:47;;;;;;;12.10;2.53;;;12.20;99.90;;;;;;5053605;28;20041;-72
2023/10/04 02:03:14;;;;;;;10.73;2.55;;;12.20;99.90;;;;;;5036648;28;20098;-72
2023/10/04 02:05:40;;;;;;;9.13;2.53;;;12.20;99.90;;;;;;5053492;28;20382;-71
2023/10/04 02:08:07;;;;;;;12.73;2.70;;;12.20;99.90;;;;;;5020315;28;20118;-71
2023/10/04 02:10:34;;;;;;;8.90;2.42;;;12.10;99.90;;;;;;5036637;28;20079;-72
2023/10/04 02:12:59;;;;;;;11.63;2.35;;;12.10;99.90;;;;;;5036649;28;20083;-72
2023/10/04 02:15:25;;;;;;;12.77;2.95;;;12.10;99.90;;;;;;5052949;28;20076;-71
2023/10/04 02:17:53;;;;;;;12.23;2.60;;;12.00;99.90;;;;;;5036753;28;20120;-71
2023/10/04 02:20:23;;;;;;;10.98;2.70;;;12.00;99.90;;;;;;5053120;28;20045;-72
2023/10/04 02:22:50;;;;;;;13.27;2.47;;;12.00;99.90;;;;;;5053405;28;20565;-71
2023/10/04 02:25:17;;;;;;;7.97;2.28;;;12.00;99.90;;;;;;5052957;28;20053;-72
2023/10/04 02:27:49;;;;;;;9.25;2.40;;;12.00;99.90;;;;;;5052701;28;20052;-73
2023/10/04 02:30:26;;;;;;;10.18;2.53;;;11.90;99.90;;;;;;5036338;28;20048;-72
2023/10/04 02:32:53;;;;;;;10.48;2.40;;;11.90;99.90;;;;;;5052765;28;20056;-71
2023/10/04 02:35:26;;;;;;;11.10;2.40;;;11.90;99.90;;;;;;5052351;28;20045;-73
2023/10/04 02:37:59;;;;;;;9.73;2.35;;;11.90;99.90;;;;;;5035962;28;20056;-72
2023/10/04 02:40:27;;;;;;;11.77;2.55;;;11.90;99.90;;;;;;5052295;28;20037;-72
2023/10/04 02:42:55;;;;;;;12.60;2.60;;;12.00;99.90;;;;;;5053680;28;20056;-72
2023/10/04 02:45:22;;;;;;;12.57;2.72;;;12.00;99.90;;;;;;5052791;28;20045;-72
2023/10/04 02:47:52;;;;;;;13.18;2.80;;;12.00;99.90;;;;;;5039031;28;20405;-72
2023/10/04 02:50:23;;;;;;;9.65;2.53;;;12.00;99.90;;;;;;5040291;28;20049;-72
2023/10/04 02:52:50;;;;;;;15.02;2.60;;;12.10;99.90;;;;;;5056852;28;20124;-72
2023/10/04 02:55:19;;;;;;;12.82;2.92;;;12.10;99.90;;;;;;5056395;28;20068;-72
2023/10/04 02:57:49;;;;;;;11.25;2.95;;;12.20;99.90;;;;;;5056352;28;20036;-72
2023/10/04 03:00:16;;;;;;;10.70;2.60;;;12.20;99.90;;;;;;5056253;28;20073;-72
2023/10/04 03:02:47;;;;;;;11.90;2.75;;;12.20;99.90;;;;;;5023230;28;20041;-72
2023/10/04 03:05:20;;;;;;;12.40;3.00;;;12.20;99.90;;;;;;5056474;28;20612;-72
2023/10/04 03:07:47;;;;;;;13.13;3.10;;;12.10;99.90;;;;;;5039837;28;20045;-71
2023/10/04 03:10:23;;;;;;;12.30;3.08;;;12.20;99.90;;;;;;5056284;28;20079;-71
2023/10/04 03:13:00;;;;;;;11.88;2.92;;;12.10;99.90;;;;;;5056096;28;20049;-71
2023/10/04 03:15:28;;;;;;;11.73;2.70;;;12.10;99.90;;;;;;5056608;28;20044;-72
2023/10/04 03:17:59;;;;;;;12.63;3.42;;;12.10;99.90;;;;;;5056313;28;20546;-72
2023/10/04 03:20:28;;;;;;;14.68;3.17;;;12.00;99.90;;;;;;5039756;28;20079;-72
2023/10/04 03:22:55;;;;;;;12.85;3.50;;;12.00;99.90;;;;;;5055757;28;20132;-72
2023/10/04 03:25:24;;;;;;;13.57;3.95;;;12.00;99.90;;;;;;5055692;28;20088;-72
2023/10/04 03:27:50;;;;;;;12.30;3.55;;;12.00;99.90;;;;;;5039032;28;20190;-73
2023/10/04 03:30:16;;;;;;;12.25;3.55;;;12.00;99.90;;;;;;5055213;28;20123;-72
2023/10/04 03:32:44;;;;;;;8.88;3.17;;;12.00;99.90;;;;;;5055172;28;20512;-73
2023/10/04 03:35:14;;;;;;;10.85;3.20;;;11.90;99.90;;;;;;5055145;28;20041;-73
2023/10/04 03:37:48;;;;;;;13.93;3.45;;;11.90;99.90;;;;;;5023874;28;20477;-72
2023/10/04 03:40:14;;;;;;;10.02;3.40;;;11.90;99.90;;;;;;5038826;28;20044;-72
2023/10/04 03:42:41;;;;;;;12.38;3.90;;;11.80;99.90;;;;;;5055390;28;20041;-72
2023/10/04 03:45:10;;;;;;;12.38;3.50;;;11.80;99.90;;;;;;5022870;28;20515;-72
2023/10/04 03:47:38;;;;;;;10.07;3.20;;;11.80;99.90;;;;;;5055692;28;20489;-72
2023/10/04 03:50:14;;;;;;;10.77;3.25;;;11.80;99.90;;;;;;5038890;28;20076;-72
2023/10/04 03:52:42;;;;;;;13.65;3.45;;;11.70;99.90;;;;;;5055526;28;20489;-72
2023/10/04 03:55:08;;;;;;;12.18;3.70;;;11.70;99.90;;;;;;5056016;28;20540;-71
2023/10/04 03:57:34;;;;;;;12.50;3.50;;;11.60;99.90;;;;;;5038606;28;20041;-71
2023/10/04 04:00:16;;;;;;;11.10;3.20;;;11.60;99.90;;;;;;5038107;28;20037;-72
2023/10/04 04:02:43;;;;;;;;;;;11.60;99.90;;;;;;5055548;28;20083;-72
2023/10/04 04:05:10;;;;;;;17.15;3.83;;;11.60;99.90;;;;;;5055018;28;19986;-72
2023/10/04 04:07:36;;;;;;;14.07;3.63;;;11.60;99.90;;;;;;5055120;28;20040;-72
2023/10/04 04:10:03;;;;;;;13.63;3.67;;;11.60;99.90;;;;;;5055313;28;20393;-72
2023/10/04 04:12:29;;;;;;;11.98;3.22;;;11.50;99.90;;;;;;5055157;28;20045;-72
2023/10/04 04:14:56;;;;;;;13.77;3.67;;;11.50;99.90;;;;;;5054934;28;20072;-73
2023/10/04 04:17:27;;;;;;;10.77;3.40;;;11.50;99.90;;;;;;5054343;28;20044;-68
2023/10/04 04:19:53;;;;;;;12.68;3.72;;;11.50;99.90;;;;;;5038143;28;20457;-68
2023/10/04 04:22:25;;;;;;;12.00;3.47;;;11.50;99.90;;;;;;5053992;28;20053;-69
2023/10/04 04:24:51;;;;;;;11.43;3.67;;;11.40;99.90;;;;;;5037033;28;20061;-68
2023/10/04 04:27:22;;;;;;;12.13;3.83;;;11.40;99.90;;;;;;5037431;28;20048;-69
2023/10/04 04:29:54;;;;;;;15.50;3.90;;;11.40;99.90;;;;;;5037143;28;20041;-69
2023/10/04 04:32:26;;;;;;;12.02;3.50;;;11.40;99.90;;;;;;5037267;28;20063;-69
2023/10/04 04:35:03;;;;;;;;;;;11.30;99.90;;;;;;5038585;28;20044;-68
2023/10/04 04:37:30;;;;;;;12.13;3.50;;;11.40;99.90;;;;;;5053530;28;19920;-69
2023/10/04 04:39:56;;;;;;;12.57;3.65;;;11.30;99.90;;;;;;5037462;28;20045;-68
2023/10/04 04:42:30;;;;;;;18.15;3.90;;;11.40;99.90;;;;;;5037059;28;20052;-68
2023/10/04 04:44:59;;;;;;;13.50;3.80;;;11.40;99.90;;;;;;5038466;28;20075;-67
2023/10/04 04:47:26;;;;;;;11.13;3.20;;;11.50;99.90;;;;;;5053616;28;20134;-67
2023/10/04 04:49:53;;;;;;;10.57;3.53;;;11.40;99.90;;;;;;5036966;28;20045;-67
2023/10/04 04:52:18;;;;;;;11.73;3.00;;;11.50;99.90;;;;;;5036859;28;20071;-68
2023/10/04 04:54:44;;;;;;;14.32;3.65;;;11.50;99.90;;;;;;5037017;28;20033;-69
2023/10/04 04:57:11;;;;;;;11.05;3.35;;;11.50;99.90;;;;;;5036537;28;20129;-68
2023/10/04 04:59:37;;;;;;;14.18;3.13;;;11.50;99.90;;;;;;5036693;28;20135;-68
2023/10/04 05:02:03;;;;;;;16.70;3.88;;;11.50;99.90;;;;;;5053409;28;20505;-68
2023/10/04 05:04:29;;;;;;;9.30;3.35;;;11.50;99.90;;;;;;5036445;28;20051;-69
2023/10/04 05:06:55;;;;;;;12.13;3.20;;;11.50;99.90;;;;;;5053158;28;20190;-69
2023/10/04 05:09:20;;;;;;;13.82;3.65;;;11.50;99.90;;;;;;5053018;28;20059;-68
2023/10/04 05:11:46;;;;;;;13.65;3.80;;;11.60;99.90;;;;;;5019879;28;20083;-69
2023/10/04 05:14:13;;;;;;;13.95;3.40;;;11.60;99.90;;;;;;5020184;28;20041;-67
2023/10/04 05:16:39;;;;;;;16.58;4.00;;;11.60;99.90;;;;;;5052801;28;20471;-68
2023/10/04 05:19:09;;;;;;;9.63;3.25;;;11.60;99.90;;;;;;5020065;28;20040;-69
2023/10/04 05:21:38;;;;;;;11.88;3.50;;;11.70;99.90;;;;;;5036435;28;20041;-68
2023/10/04 05:24:05;;;;;;;9.40;3.25;;;11.70;99.90;;;;;;5052495;28;20045;-68
2023/10/04 05:26:32;;;;;;;13.60;3.60;;;11.60;99.90;;;;;;5036361;28;20049;-71
2023/10/04 05:29:00;;;;;;;12.95;3.40;;;11.70;99.90;;;;;;5036683;28;20078;-72
2023/10/04 05:31:28;;;;;;;13.00;3.78;;;11.70;99.90;;;;;;5052926;28;20049;-72
2023/10/04 05:33:54;;;;;;;13.65;3.63;;;11.60;99.90;;;;;;5052883;28;20037;-72
2023/10/04 05:36:24;;;;;;;13.80;3.40;;;11.60;99.90;;;;;;5036364;28;20142;-72
2023/10/04 05:38:50;;;;;;;12.20;3.53;;;11.60;99.90;;;;;;5036141;28;20088;-72
2023/10/04 05:41:15;;;;;;;13.27;3.92;;;11.60;99.90;;;;;;5053167;28;20397;-72
2023/10/04 05:43:43;;;;;;;12.82;3.72;;;11.50;99.90;;;;;;5036323;28;20037;-74
2023/10/04 05:46:10;;;;;;;11.25;3.72;;;11.50;99.90;;;;;;5052793;28;20128;-72
2023/10/04 05:48:36;;;;;;;14.18;3.28;;;11.50;99.90;;;;;;5052617;28;20412;-73
2023/10/04 05:51:02;;;;;;;12.30;3.75;;;11.50;99.90;;;;;;5053156;28;20049;-72
2023/10/04 05:53:27;;;;;;;12.57;3.63;;;11.50;99.90;;;;;;5036376;28;20049;-72
2023/10/04 05:55:54;;;;;;;12.77;3.75;;;11.50;99.90;;;;;;5036272;28;20037;-71
2023/10/04 05:58:21;;;;;;;13.52;3.70;;;11.50;99.90;;;;;;5052876;28;20037;-71
2023/10/04 06:00:52;;;;;;;13.60;3.88;;;11.50;99.90;;;;;;5036656;28;20037;-71
2023/10/04 06:03:18;;;;;;;13.88;3.80;;;11.40;99.90;;;;;;5021625;28;20040;-71
2023/10/04 06:05:44;;;;;;;11.85;3.25;;;11.50;99.90;;;;;;5020210;28;20045;-71
2023/10/04 06:08:21;;;;;;;12.32;3.90;;;11.50;99.90;;;;;;5036148;28;20151;-71
2023/10/04 06:10:53;;;;;;;12.77;3.75;;;11.50;99.90;;;;;;5052687;28;20080;-70
2023/10/04 06:13:22;;;;;;;12.45;3.50;;;11.50;99.90;;;;;;5035946;28;20053;-72
2023/10/04 06:15:49;;;;;;;10.80;3.92;;;11.60;99.90;;;;;;5052925;28;20452;-71
2023/10/04 06:18:19;;;;;;;14.75;3.70;;;11.60;99.90;;;;;;5035607;28;20072;-71
2023/10/04 06:20:45;;;;;;;12.32;3.63;;;11.70;99.90;;;;;;5051929;28;20158;-71
2023/10/04 06:23:14;;;;;;;12.63;3.88;;;11.70;99.90;;;;;;5035198;28;20052;-71
2023/10/04 06:25:41;;;;;;;12.70;3.38;;;11.80;99.90;;;;;;5035785;28;20471;-71
2023/10/04 06:28:13;;;;;;;11.68;3.58;;;11.80;99.90;;;;;;5053429;28;20041;-70
2023/10/04 06:30:40;;;;;;;12.90;3.33;;;11.90;99.90;;;;;;5052085;28;20048;-72
2023/10/04 06:33:09;;;;;;;10.88;3.50;;;11.90;99.90;;;;;;5051829;28;20497;-72
2023/10/04 06:35:37;;;;;;;12.48;3.63;;;11.90;99.90;;;;;;5035354;28;20123;-68
2023/10/04 06:38:08;;;;;;;9.98;3.67;;;12.00;99.90;;;;;;5051654;28;20036;-67
2023/10/04 06:40:35;;;;;;;17.70;3.72;;;12.00;99.90;;;;;;5051600;28;20052;-67
2023/10/04 06:43:08;;;;;;;12.00;3.88;;;12.10;99.90;;;;;;5051846;28;20048;-67
2023/10/04 06:45:35;;;;;;;13.18;3.85;;;12.10;99.90;;;;;;5051912;28;20605;-70
2023/10/04 06:48:05;;;;;;;14.50;3.75;;;12.10;99.90;;;;;;5051731;28;20103;-70
2023/10/04 06:50:32;;;;;;;12.40;3.95;;;12.20;99.90;;;;;;5035137;28;20037;-70
2023/10/04 06:53:00;;;;;;;14.93;3.83;;;12.20;99.90;;;;;;5051587;28;20041;-71
2023/10/04 06:55:27;;;;;;;12.32;4.20;;;12.20;99.90;;;;;;5035576;28;20405;-71
2023/10/04 06:57:54;;;;;;;12.60;3.85;;;12.20;99.90;;;;;;5004220;28;20044;-71
2023/10/04 07:00:22;;;;;;;12.98;3.97;;;12.20;99.90;;;;;;5052274;28;20040;-71
2023/10/04 07:02:53;;;;;;;13.73;3.55;;;12.20;99.90;;;;;;5053753;28;20057;-72
2023/10/04 07:05:21;;;;;;;14.25;4.28;;;12.30;99.90;;;;;;5052955;28;20158;-72
2023/10/04 07:07:49;;;;;;;10.55;3.53;;;12.30;99.90;;;;;;5052664;28;20051;-70
2023/10/04 07:10:20;;;;;;;17.40;4.30;;;12.40;99.90;;;;;;5053087;28;20072;-70
2023/10/04 07:12:46;;;;;;;12.38;3.70;;;12.50;99.90;;;;;;5052613;28;20041;-71
2023/10/04 07:15:13;;;;;;;14.05;3.72;;;12.60;99.90;;;;;;5036210;28;20041;-71
2023/10/04 07:17:40;;;;;;;13.93;4.35;;;12.70;99.90;;;;;;5018790;28;20495;-67
2023/10/04 07:20:14;;;;;;;12.70;4.20;;;12.70;99.90;;;;;;5035045;28;20496;-68
2023/10/04 07:22:45;;;;;;;11.20;3.72;;;12.80;99.90;;;;;;5051164;28;20045;-68
2023/10/04 07:25:12;;;;;;;14.57;4.40;;;12.80;99.90;;;;;;5051439;28;20540;-68
2023/10/04 07:27:43;;;;;;;14.00;3.92;;;12.90;99.90;;;;;;5051208;28;20288;-67
2023/10/04 07:30:19;;;;;;;13.13;3.90;;;12.90;99.90;;;;;;5051335;28;20080;-68
2023/10/04 07:32:46;;;;;;;16.42;4.38;;;12.90;99.90;;;;;;5052008;28;20037;-66
2023/10/04 07:35:19;;;;;;;12.52;3.60;;;13.00;99.90;;;;;;5038502;28;20072;-67
2023/10/04 07:37:46;;;;;;;11.23;3.92;;;13.10;99.90;;;;;;5054724;28;20102;-68
2023/10/04 07:40:14;;;;;;;15.98;3.88;;;13.20;99.90;;;;;;5054626;28;20037;-68
2023/10/04 07:42:45;;;;;;;13.55;3.88;;;13.30;99.90;;;;;;5038177;28;20501;-67
2023/10/04 07:45:16;;;;;;;12.90;3.92;;;13.30;99.90;;;;;;5054937;28;20048;-68
2023/10/04 07:47:43;;;;;;;14.73;3.63;;;13.30;99.90;;;;;;5038875;28;20041;-71
2023/10/04 07:50:25;;;;;;;11.98;4.00;;;13.30;99.90;;;;;;5038620;28;20293;-71
2023/10/04 07:52:56;;;;;;;16.05;4.07;;;13.40;99.90;;;;;;5038330;28;20048;-71
2023/10/04 07:55:24;;;;;;;15.55;4.38;;;13.40;99.90;;;;;;5038239;28;20063;-71
2023/10/04 07:57:58;;;;;;;13.10;3.88;;;13.40;99.90;;;;;;5022077;28;20366;-72
2023/10/04 08:00:24;;;;;;;11.65;3.70;;;13.50;99.90;;;;;;5054483;28;20155;-72
2023/10/04 08:02:54;;;;;;;14.55;4.07;;;13.50;99.90;;;;;;5054358;28;20045;-71
2023/10/04 08:05:25;;;;;;;14.27;4.55;;;13.60;99.90;;;;;;5021721;28;20555;-72
2023/10/04 08:07:56;;;;;;;12.17;4.03;;;13.70;99.90;;;;;;5054461;28;20047;-72
2023/10/04 08:10:25;;;;;;;15.90;4.20;;;13.70;99.90;;;;;;5037525;28;20374;-73
2023/10/04 08:12:54;;;;;;;14.50;3.85;;;13.90;99.90;;;;;;5054113;28;20520;-72
2023/10/04 08:15:27;;;;;;;11.85;3.95;;;14.00;99.90;;;;;;5054257;28;20362;-73
2023/10/04 08:17:55;;;;;;;13.38;4.30;;;14.10;99.90;;;;;;5054049;28;20041;-73
2023/10/04 08:20:22;;;;;;;13.02;3.88;;;14.10;99.90;;;;;;5037741;28;20392;-72
2023/10/04 08:22:48;;;;;;;11.02;3.85;;;14.20;99.90;;;;;;5053965;28;20037;-73
2023/10/04 08:25:20;;;;;;;15.70;4.28;;;14.30;99.90;;;;;;5053684;28;20059;-73
2023/10/04 08:27:46;;;;;;;14.85;4.10;;;14.30;99.90;;;;;;5053846;28;20048;-72
2023/10/04 08:30:17;;;;;;;14.32;4.10;;;14.50;99.90;;;;;;5037280;28;20049;-73
2023/10/04 08:32:46;;;;;;;14.75;4.20;;;14.50;99.90;;;;;;5054101;28;20142;-73
2023/10/04 08:35:25;;;;;;;15.93;4.00;;;14.50;99.90;;;;;;5054046;28;20048;-74
2023/10/04 08:37:55;;;;;;;12.85;3.97;;;14.60;99.90;;;;;;5038809;28;20037;-72
2023/10/04 08:40:23;;;;;;;13.80;4.30;;;14.70;99.90;;;;;;5053597;28;20048;-72
2023/10/04 08:42:55;;;;;;;11.95;3.97;;;14.80;99.90;;;;;;5053559;28;20045;-72
2023/10/04 08:45:25;;;;;;;13.02;4.07;;;14.80;99.90;;;;;;5036773;28;20040;-72
2023/10/04 08:47:55;;;;;;;13.90;4.25;;;15.00;99.90;;;;;;5053869;28;20044;-72
2023/10/04 08:50:40;;;;;;;12.32;3.95;;;15.10;99.90;;;;;;5053466;28;20043;-72
2023/10/04 08:53:31;;;;;;;14.20;4.30;;;15.20;99.90;;;;;;5053529;28;20103;-72
2023/10/04 08:56:10;;;;;;;13.82;4.07;;;15.40;99.90;;;;;;5053928;28;20049;-72
2023/10/04 08:58:36;;;;;;;12.68;4.18;;;15.50;99.90;;;;;;5053758;28;20041;-72
2023/10/04 09:01:06;;;;;;;15.32;4.15;;;15.60;99.90;;;;;;5036855;28;20167;-72
2023/10/04 09:03:35;;;;;;;15.75;4.22;;;15.70;99.90;;;;;;5053705;28;20508;-71
2023/10/04 09:06:05;;;;;;;15.52;4.20;;;15.80;99.90;;;;;;5053312;28;20052;-72
2023/10/04 09:08:31;;;;;;;13.18;4.25;;;15.90;99.90;;;;;;5037337;28;20048;-72
2023/10/04 09:10:58;;;;;;;13.02;4.00;;;16.00;99.90;;;;;;5053407;28;20046;-72
2023/10/04 09:13:27;;;;;;;15.10;4.38;;;16.10;99.90;;;;;;5020213;28;20041;-72
2023/10/04 09:15:52;;;;;;;13.35;3.85;;;16.20;99.90;;;;;;5053687;28;20049;-71
2023/10/04 09:18:29;;;;;;;14.35;4.15;;;16.40;99.90;;;;;;5053498;28;20045;-72
2023/10/04 09:20:55;;;;;;;13.48;4.18;;;16.60;99.90;;;;;;5037057;28;20119;-72
2023/10/04 09:23:24;;;;;;;15.70;4.13;;;16.60;99.90;;;;;;5053930;28;20147;-73
2023/10/04 09:25:54;;;;;;;14.38;4.10;;;16.70;99.90;;;;;;5036509;28;20115;-73
2023/10/04 09:28:20;;;;;;;11.60;4.00;;;16.70;99.90;;;;;;5053632;28;20037;-74
2023/10/04 09:30:46;;;;;;;13.40;4.30;;;16.70;99.90;;;;;;5037306;28;20049;-71
2023/10/04 09:33:28;;;;;;;14.23;3.90;;;16.70;99.90;;;;;;5037185;28;20493;-71
2023/10/04 09:35:55;;;;;;;13.82;4.20;;;16.80;99.90;;;;;;5037071;28;20123;-74
2023/10/04 09:38:25;;;;;;;11.07;3.80;;;16.90;99.90;;;;;;5053792;28;20048;-72
2023/10/04 09:40:55;;;;;;;13.75;4.28;;;16.90;99.90;;;;;;5038329;28;20504;-72
2023/10/04 09:43:38;;;;;;;17.10;4.18;;;17.00;99.90;;;;;;5054787;28;20048;-71
2023/10/04 09:46:09;;;;;;;12.13;3.78;;;17.20;99.90;;;;;;5038252;28;20041;-72
2023/10/04 09:48:41;;;;;;;;;;;17.30;99.90;;;;;;5038545;28;20056;-73
2023/10/04 09:51:09;;;;;;;12.68;4.22;;;17.30;99.90;;;;;;5053951;28;19923;-72
2023/10/04 09:53:39;;;;;;;14.88;4.10;;;17.30;99.90;;;;;;5053629;28;20497;-71
2023/10/04 09:56:07;;;;;;;12.90;4.05;;;17.20;99.90;;;;;;5052970;28;20037;-72
2023/10/04 09:58:33;;;;;;;15.40;4.38;;;17.20;99.90;;;;;;5053219;28;20064;-71
2023/10/04 10:01:13;;;;;;;13.68;3.90;;;17.20;99.90;;;;;;5053101;28;20036;-72
2023/10/04 10:04:05;;;;;;;16.35;4.30;;;17.30;99.90;;;;;;5037349;28;20382;-71
2023/10/04 10:06:35;;;;;;;12.32;4.15;;;17.40;99.90;;;;;;5052470;28;20048;-67
2023/10/04 10:09:07;;;;;;;15.23;4.47;;;17.40;99.90;;;;;;5052011;28;20052;-66
2023/10/04 10:11:34;;;;;;;13.23;4.35;;;17.40;99.90;;;;;;5035656;28;20524;-66
2023/10/04 10:14:03;;;;;;;12.60;4.25;;;17.60;99.90;;;;;;5051924;28;20044;-66
2023/10/04 10:16:32;;;;;;;11.32;4.50;;;17.60;99.90;;;;;;5052001;28;20033;-66
2023/10/04 10:18:58;;;;;;;15.20;4.47;;;17.60;99.90;;;;;;5053001;28;20044;-66
2023/10/04 10:22:03;;;;;;;14.00;4.57;;;17.60;99.90;;;;;;5051820;28;20048;-66
2023/10/04 10:24:29;;;;;;;12.70;4.40;;;17.60;99.90;;;;;;5051728;28;20127;-67
2023/10/04 10:27:08;;;;;;;10.88;4.47;;;17.60;99.90;;;;;;5051783;28;20132;-67
2023/10/04 10:29:38;;;;;;;12.73;4.30;;;17.60;99.90;;;;;;5053043;28;20103;-66
2023/10/04 10:32:13;;;;;;;13.75;4.82;;;17.60;99.90;;;;;;5051594;28;20041;-67
2023/10/04 10:34:40;;;;;;;11.95;4.28;;;17.60;99.90;;;;;;5035044;28;20037;-67
2023/10/04 10:37:22;;;;;;;13.18;4.20;;;17.50;99.90;;;;;;5019149;28;20174;-67
2023/10/04 10:39:56;;;;;;;12.43;4.32;;;17.50;99.90;;;;;;5052017;28;20059;-67
2023/10/04 10:42:22;;;;;;;15.23;4.78;;;17.50;99.90;;;;;;5052940;28;20119;-67
2023/10/04 10:44:50;;;;;;;12.50;4.50;;;17.40;99.90;;;;;;5051838;28;20523;-67
2023/10/04 10:47:26;;;;;;;13.05;4.75;;;17.40;99.90;;;;;;5035829;28;20131;-71
2023/10/04 10:49:57;;;;;;;13.68;4.50;;;17.20;99.90;;;;;;5052088;28;20048;-72
2023/10/04 10:52:27;;;;;;;13.38;4.43;;;17.20;99.90;;;;;;5036062;28;20107;-72
2023/10/04 10:54:58;;;;;;;15.25;4.40;;;17.20;99.90;;;;;;5052328;28;20435;-73
2023/10/04 10:57:30;;;;;;;13.85;4.60;;;17.20;99.90;;;;;;5020226;28;20040;-72
2023/10/04 10:59:57;;;;;;;12.05;4.13;;;17.20;99.90;;;;;;5051974;28;20116;-72
2023/10/04 11:02:25;;;;;;;13.35;4.40;;;17.20;99.90;;;;;;5051842;28;20374;-73
2023/10/04 11:04:54;;;;;;;14.57;4.70;;;17.20;99.90;;;;;;5052067;28;20396;-73
2023/10/04 11:07:21;;;;;;;15.30;4.60;;;17.20;99.90;;;;;;5052137;28;20041;-72
2023/10/04 11:09:55;;;;;;;13.10;4.50;;;17.20;99.90;;;;;;5055677;28;20049;-72
2023/10/04 11:12:22;;;;;;;13.80;4.72;;;17.20;99.90;;;;;;5055602;28;20052;-72
2023/10/04 11:14:51;;;;;;;12.48;4.22;;;17.10;99.90;;;;;;5039275;28;20040;-73
2023/10/04 11:17:20;;;;;;;14.82;4.82;;;17.20;99.90;;;;;;5023305;28;20037;-72
2023/10/04 11:19:46;;;;;;;13.23;4.78;;;17.10;99.90;;;;;;5055882;28;20033;-72
2023/10/04 11:22:14;;;;;;;12.68;4.63;;;17.20;99.90;;;;;;5022802;28;20036;-72
2023/10/04 11:24:41;;;;;;;14.27;4.93;;;17.10;99.90;;;;;;5039305;28;20051;-72
2023/10/04 11:27:08;;;;;;;14.85;4.65;;;17.10;99.90;;;;;;5055375;28;20056;-72
2023/10/04 11:29:35;;;;;;;15.00;4.95;;;17.10;99.90;;;;;;5055345;28;20084;-72
2023/10/04 11:32:01;;;;;;;14.80;4.80;;;17.20;99.90;;;;;;5055641;28;20041;-72
2023/10/04 11:34:27;;;;;;;13.20;4.95;;;17.20;99.90;;;;;;5055329;28;20048;-72
2023/10/04 11:37:00;;;;;;;15.65;5.32;;;17.10;99.90;;;;;;5055415;28;20117;-72
2023/10/04 11:39:34;;;;;;;14.60;4.95;;;17.10;99.90;;;;;;5038628;28;20123;-72
2023/10/04 11:42:04;;;;;;;14.05;4.88;;;17.10;99.90;;;;;;5039669;28;20041;-72
2023/10/04 11:44:33;;;;;;;13.82;5.13;;;17.10;99.90;;;;;;5055532;28;20496;-72
2023/10/04 11:47:04;;;;;;;15.10;5.55;;;17.10;99.90;;;;;;5054989;28;20055;-73
2023/10/04 11:49:34;;;;;;;14.90;5.03;;;17.20;99.90;;;;;;5038569;28;20129;-72
2023/10/04 11:52:04;;;;;;;15.20;5.25;;;17.20;99.90;;;;;;5038348;28;20063;-72
2023/10/04 11:54:41;;;;;;;16.75;4.78;;;17.20;99.90;;;;;;5055129;28;20045;-73
2023/10/04 11:57:09;;;;;;;12.98;4.60;;;17.20;99.90;;;;;;5055266;28;20041;-72
2023/10/04 11:59:35;;;;;;;12.15;4.88;;;17.20;99.90;;;;;;5054933;28;20033;-72
2023/10/04 12:02:01;;;;;;;13.73;4.50;;;17.20;99.90;;;;;;5054624;28;20037;-71
2023/10/04 12:04:32;;;;;;;14.55;4.60;;;17.20;99.90;;;;;;5054312;28;20119;-72
2023/10/04 12:07:04;;;;;;;15.47;5.13;;;17.20;99.90;;;;;;5038118;28;20045;-72
2023/10/04 12:09:36;;;;;;;13.60;5.00;;;17.20;99.90;;;;;;5038761;28;20282;-72
2023/10/04 12:12:05;;;;;;;14.77;4.82;;;17.20;99.90;;;;;;5038506;28;20111;-73
2023/10/04 12:14:34;;;;;;;13.88;4.50;;;17.20;99.90;;;;;;5054220;28;20099;-72
2023/10/04 12:17:04;;;;;;;12.75;4.65;;;17.20;99.90;;;;;;5054400;28;20045;-72
2023/10/04 12:19:31;;;;;;;14.35;5.10;;;17.20;99.90;;;;;;5036602;28;20041;-72
2023/10/04 12:21:59;;;;;;;15.23;5.18;;;17.20;99.90;;;;;;5037939;28;20037;-72
2023/10/04 12:24:30;;;;;;;15.48;4.70;;;17.20;99.90;;;;;;5054182;28;20048;-72
2023/10/04 12:26:58;;;;;;;13.73;4.72;;;17.10;99.90;;;;;;5053867;28;20413;-65
2023/10/04 12:29:30;;;;;;;13.07;4.88;;;17.10;99.90;;;;;;5037485;28;20398;-66
2023/10/04 12:31:56;;;;;;;;;;;17.10;99.90;;;;;;5038484;28;20093;-67
2023/10/04 12:34:24;;;;;;;13.48;4.50;;;17.20;99.90;;;;;;5037199;28;19920;-64
2023/10/04 12:36:51;;;;;;;15.63;5.07;;;17.10;99.90;;;;;;5037375;28;20055;-66
2023/10/04 12:39:19;;;;;;;14.45;4.60;;;17.10;99.90;;;;;;5053798;28;20045;-67
2023/10/04 12:41:47;;;;;;;15.65;4.93;;;17.20;99.90;;;;;;5053623;28;20041;-66
2023/10/04 12:44:13;;;;;;;14.32;4.57;;;17.20;99.90;;;;;;5053521;28;20056;-66
2023/10/04 12:46:39;;;;;;;15.27;4.78;;;17.20;99.90;;;;;;5053447;28;20424;-66
2023/10/04 12:49:08;;;;;;;15.55;5.10;;;17.20;99.90;;;;;;5053456;28;20048;-67
2023/10/04 12:51:34;;;;;;;12.90;4.88;;;17.20;99.90;;;;;;5036953;28;20127;-67